sensor_id;sensor_type;location;lat;lon;timestamp;temperature;humidity
45868;DHT22;31582;45.490;7.860;2023-05-16T00:00:42;12.60;97.80
45868;DHT22;31582;45.490;7.860;2023-05-16T00:03:09;12.50;98.40
45868;DHT22;31582;45.490;7.860;2023-05-16T00:05:38;12.40;99.40
45868;DHT22;31582;45.490;7.860;2023-05-16T00:08:05;12.40;99.30
45868;DHT22;31582;45.490;7.860;2023-05-16T00:10:32;12.30;99.40
45868;DHT22;31582;45.490;7.860;2023-05-16T00:12:59;12.30;99.40
45868;DHT22;31582;45.490;7.860;2023-05-16T00:15:28;12.20;99.90
45868;DHT22;31582;45.490;7.860;2023-05-16T00:17:58;12.20;99.80
45868;DHT22;31582;45.490;7.860;2023-05-16T00:20:26;12.10;99.90
45868;DHT22;31582;45.490;7.860;2023-05-16T00:22:54;12.10;99.90
45868;DHT22;31582;45.490;7.860;2023-05-16T00:25:22;12.00;99.90
45868;DHT22;31582;45.490;7.860;2023-05-16T00:27:49;12.00;99.90
45868;DHT22;31582;45.490;7.860;2023-05-16T00:30:16;11.90;99.90
45868;DHT22;31582;45.490;7.860;2023-05-16T00:32:43;11.90;99.90
45868;DHT22;31582;45.490;7.860;2023-05-16T00:35:10;11.80;99.90
45868;DHT22;31582;45.490;7.860;2023-05-16T00:37:38;11.80;99.90
45868;DHT22;31582;45.490;7.860;2023-05-16T00:40:06;11.70;99.90
45868;DHT22;31582;45.490;7.860;2023-05-16T00:42:33;11.70;99.90
45868;DHT22;31582;45.490;7.860;2023-05-16T00:45:00;11.60;99.90
45868;DHT22;31582;45.490;7.860;2023-05-16T00:47:27;11.60;99.90
45868;DHT22;31582;45.490;7.860;2023-05-16T00:49:54;11.50;99.90
45868;DHT22;31582;45.490;7.860;2023-05-16T00:52:24;11.50;99.90
45868;DHT22;31582;45.490;7.860;2023-05-16T00:54:52;11.40;99.90
45868;DHT22;31582;45.490;7.860;2023-05-16T00:57:28;11.40;99.90
45868;DHT22;31582;45.490;7.860;2023-05-16T01:00:01;11.30;99.90
45868;DHT22;31582;45.490;7.860;2023-05-16T01:02:28;11.30;99.90
45868;DHT22;31582;45.490;7.860;2023-05-16T16:44:57;19.40;95.00
45868;DHT22;31582;45.490;7.860;2023-05-16T16:47:24;19.30;94.20
45868;DHT22;31582;45.490;7.860;2023-05-16T16:49:51;19.20;95.50
45868;DHT22;31582;45.490;7.860;2023-05-16T16:52:18;19.10;95.10
45868;DHT22;31582;45.490;7.860;2023-05-16T16:54:45;19.00;95.00
45868;DHT22;31582;45.490;7.860;2023-05-16T16:57:12;19.00;95.50
45868;DHT22;31582;45.490;7.860;2023-05-16T16:59:39;18.90;97.00
45868;DHT22;31582;45.490;7.860;2023-05-16T17:02:06;18.90;97.70
45868;DHT22;31582;45.490;7.860;2023-05-16T17:04:33;18.90;98.50
45868;DHT22;31582;45.490;7.860;2023-05-16T17:07:00;18.90;99.30
45868;DHT22;31582;45.490;7.860;2023-05-16T17:09:27;18.90;99.90
45868;DHT22;31582;45.490;7.860;2023-05-16T17:11:54;18.90;99.40
45868;DHT22;31582;45.490;7.860;2023-05-16T17:14:21;18.80;94.60
45868;DHT22;31582;45.490;7.860;2023-05-16T17:16:49;18.70;94.40
45868;DHT22;31582;45.490;7.860;2023-05-16T17:19:16;18.60;95.70
45868;DHT22;31582;45.490;7.860;2023-05-16T17:21:43;18.60;97.40
45868;DHT22;31582;45.490;7.860;2023-05-16T17:24:10;18.70;98.50
45868;DHT22;31582;45.490;7.860;2023-05-16T17:26:37;18.60;99.70
45868;DHT22;31582;45.490;7.860;2023-05-16T17:29:04;18.60;99.90
45868;DHT22;31582;45.490;7.860;2023-05-16T17:31:31;18.60;99.90
45868;DHT22;31582;45.490;7.860;2023-05-16T17:33:58;18.60;99.90
45868;DHT22;31582;45.490;7.860;2023-05-16T17:36:25;18.70;99.90
45868;DHT22;31582;45.490;7.860;2023-05-16T17:38:52;18.70;99.90
45868;DHT22;31582;45.490;7.860;2023-05-16T17:41:19;18.70;99.90
45868;DHT22;31582;45.490;7.860;2023-05-16T17:43:46;18.70;99.90
45868;DHT22;31582;45.490;7.860;2023-05-16T17:46:13;18.70;99.90
45868;DHT22;31582;45.490;7.860;2023-05-16T17:48:40;18.80;99.70
45868;DHT22;31582;45.490;7.860;2023-05-16T17:51:07;18.80;98.90
45868;DHT22;31582;45.490;7.860;2023-05-16T17:53:35;18.80;97.80
45868;DHT22;31582;45.490;7.860;2023-05-16T17:56:04;18.80;96.90
45868;DHT22;31582;45.490;7.860;2023-05-16T17:58:30;18.80;96.00
45868;DHT22;31582;45.490;7.860;2023-05-16T18:00:57;18.80;95.80
45868;DHT22;31582;45.490;7.860;2023-05-16T18:03:24;18.90;96.10
45868;DHT22;31582;45.490;7.860;2023-05-16T18:05:52;18.90;95.90
45868;DHT22;31582;45.490;7.860;2023-05-16T18:08:19;18.90;95.00
45868;DHT22;31582;45.490;7.860;2023-05-16T18:10:48;18.80;94.50
45868;DHT22;31582;45.490;7.860;2023-05-16T18:13:18;18.80;94.80
45868;DHT22;31582;45.490;7.860;2023-05-16T18:15:45;18.80;94.50
45868;DHT22;31582;45.490;7.860;2023-05-16T18:18:12;18.70;96.20
45868;DHT22;31582;45.490;7.860;2023-05-16T18:20:40;18.60;96.70
45868;DHT22;31582;45.490;7.860;2023-05-16T18:23:06;18.50;97.30
45868;DHT22;31582;45.490;7.860;2023-05-16T18:25:34;18.50;97.00
45868;DHT22;31582;45.490;7.860;2023-05-16T18:28:01;18.50;97.60
45868;DHT22;31582;45.490;7.860;2023-05-16T18:30:28;18.50;98.30
45868;DHT22;31582;45.490;7.860;2023-05-16T18:32:55;18.40;99.40
45868;DHT22;31582;45.490;7.860;2023-05-16T18:35:22;18.30;99.20
45868;DHT22;31582;45.490;7.860;2023-05-16T18:37:49;18.30;99.40
45868;DHT22;31582;45.490;7.860;2023-05-16T18:40:16;18.20;99.90
45868;DHT22;31582;45.490;7.860;2023-05-16T18:42:43;18.10;99.80
45868;DHT22;31582;45.490;7.860;2023-05-16T18:45:10;18.10;99.90
45868;DHT22;31582;45.490;7.860;2023-05-16T18:47:37;18.10;99.90
45868;DHT22;31582;45.490;7.860;2023-05-16T18:50:05;18.00;99.90
45868;DHT22;31582;45.490;7.860;2023-05-16T18:52:32;17.90;99.90
45868;DHT22;31582;45.490;7.860;2023-05-16T18:55:00;17.80;99.90
45868;DHT22;31582;45.490;7.860;2023-05-16T18:57:27;17.70;99.90
45868;DHT22;31582;45.490;7.860;2023-05-16T18:59:54;17.70;99.90
45868;DHT22;31582;45.490;7.860;2023-05-16T19:02:22;17.50;99.90
45868;DHT22;31582;45.490;7.860;2023-05-16T19:05:07;17.50;99.90
45868;DHT22;31582;45.490;7.860;2023-05-16T19:07:35;17.40;99.90
45868;DHT22;31582;45.490;7.860;2023-05-16T19:10:02;17.30;99.90
45868;DHT22;31582;45.490;7.860;2023-05-16T19:12:30;17.30;99.90
45868;DHT22;31582;45.490;7.860;2023-05-16T19:14:56;17.30;99.90
45868;DHT22;31582;45.490;7.860;2023-05-16T19:17:23;17.30;99.90
45868;DHT22;31582;45.490;7.860;2023-05-16T19:19:51;17.20;99.90
45868;DHT22;31582;45.490;7.860;2023-05-16T19:22:18;17.10;99.90
45868;DHT22;31582;45.490;7.860;2023-05-16T19:24:45;17.10;99.90
45868;DHT22;31582;45.490;7.860;2023-05-16T19:27:12;17.00;99.90
45868;DHT22;31582;45.490;7.860;2023-05-16T19:29:39;17.00;99.90
45868;DHT22;31582;45.490;7.860;2023-05-16T19:32:06;16.90;99.90
45868;DHT22;31582;45.490;7.860;2023-05-16T19:34:33;16.90;99.90
45868;DHT22;31582;45.490;7.860;2023-05-16T19:37:01;16.90;99.90
45868;DHT22;31582;45.490;7.860;2023-05-16T19:39:30;16.80;99.90
45868;DHT22;31582;45.490;7.860;2023-05-16T19:41:59;16.80;99.90
45868;DHT22;31582;45.490;7.860;2023-05-16T19:44:33;16.80;99.90
45868;DHT22;31582;45.490;7.860;2023-05-16T19:47:00;16.70;99.90
45868;DHT22;31582;45.490;7.860;2023-05-16T19:49:29;16.70;99.90
45868;DHT22;31582;45.490;7.860;2023-05-16T19:51:57;16.60;99.90
45868;DHT22;31582;45.490;7.860;2023-05-16T19:54:24;16.50;99.90
45868;DHT22;31582;45.490;7.860;2023-05-16T19:56:51;16.50;99.90
45868;DHT22;31582;45.490;7.860;2023-05-16T19:59:18;16.40;99.90
45868;DHT22;31582;45.490;7.860;2023-05-16T20:01:46;16.30;99.90
45868;DHT22;31582;45.490;7.860;2023-05-16T20:04:13;16.30;99.90
45868;DHT22;31582;45.490;7.860;2023-05-16T20:06:40;16.30;99.90
45868;DHT22;31582;45.490;7.860;2023-05-16T20:09:07;16.20;99.90
45868;DHT22;31582;45.490;7.860;2023-05-16T20:11:34;16.20;99.90
45868;DHT22;31582;45.490;7.860;2023-05-16T20:14:01;16.10;99.90
45868;DHT22;31582;45.490;7.860;2023-05-16T20:16:28;16.00;99.90
45868;DHT22;31582;45.490;7.860;2023-05-16T20:18:55;16.00;99.90
45868;DHT22;31582;45.490;7.860;2023-05-16T20:21:22;16.00;99.90
45868;DHT22;31582;45.490;7.860;2023-05-16T20:23:49;15.90;99.90
45868;DHT22;31582;45.490;7.860;2023-05-16T20:26:16;15.80;99.90
45868;DHT22;31582;45.490;7.860;2023-05-16T20:28:43;15.80;99.90
45868;DHT22;31582;45.490;7.860;2023-05-16T20:31:10;15.80;99.90
45868;DHT22;31582;45.490;7.860;2023-05-16T20:33:37;15.70;99.90
45868;DHT22;31582;45.490;7.860;2023-05-16T20:36:04;15.70;99.90
45868;DHT22;31582;45.490;7.860;2023-05-16T20:38:31;15.60;99.90
45868;DHT22;31582;45.490;7.860;2023-05-16T20:40:58;15.60;99.90
45868;DHT22;31582;45.490;7.860;2023-05-16T20:43:25;15.50;99.90
45868;DHT22;31582;45.490;7.860;2023-05-16T20:45:52;15.50;99.90
45868;DHT22;31582;45.490;7.860;2023-05-16T20:48:19;15.40;99.90
45868;DHT22;31582;45.490;7.860;2023-05-16T20:50:46;15.40;99.90
45868;DHT22;31582;45.490;7.860;2023-05-16T20:53:13;15.30;99.90
45868;DHT22;31582;45.490;7.860;2023-05-16T20:55:40;15.30;99.90
45868;DHT22;31582;45.490;7.860;2023-05-16T20:58:07;15.20;99.90
45868;DHT22;31582;45.490;7.860;2023-05-16T21:00:34;15.20;99.90
45868;DHT22;31582;45.490;7.860;2023-05-16T21:03:01;15.10;99.90
45868;DHT22;31582;45.490;7.860;2023-05-16T21:05:28;15.00;99.90
45868;DHT22;31582;45.490;7.860;2023-05-16T21:07:55;15.00;99.90
45868;DHT22;31582;45.490;7.860;2023-05-16T21:10:22;14.90;99.90
45868;DHT22;31582;45.490;7.860;2023-05-16T21:12:49;14.80;99.90
45868;DHT22;31582;45.490;7.860;2023-05-16T21:15:16;14.70;99.90
45868;DHT22;31582;45.490;7.860;2023-05-16T21:17:43;14.70;99.90
45868;DHT22;31582;45.490;7.860;2023-05-16T21:20:10;14.70;99.90
45868;DHT22;31582;45.490;7.860;2023-05-16T21:22:37;14.60;99.90
45868;DHT22;31582;45.490;7.860;2023-05-16T21:25:05;14.60;99.90
45868;DHT22;31582;45.490;7.860;2023-05-16T21:27:32;14.60;99.90
45868;DHT22;31582;45.490;7.860;2023-05-16T21:29:59;14.60;99.90
45868;DHT22;31582;45.490;7.860;2023-05-16T21:32:26;14.50;99.90
45868;DHT22;31582;45.490;7.860;2023-05-16T21:34:58;14.50;99.90
45868;DHT22;31582;45.490;7.860;2023-05-16T21:37:26;14.50;99.90
45868;DHT22;31582;45.490;7.860;2023-05-16T21:39:53;14.40;99.90
45868;DHT22;31582;45.490;7.860;2023-05-16T21:42:20;14.40;99.90
45868;DHT22;31582;45.490;7.860;2023-05-16T21:44:47;14.40;99.90
45868;DHT22;31582;45.490;7.860;2023-05-16T21:47:14;14.40;99.90
45868;DHT22;31582;45.490;7.860;2023-05-16T21:49:41;14.40;99.90
45868;DHT22;31582;45.490;7.860;2023-05-16T21:52:08;14.30;99.90
45868;DHT22;31582;45.490;7.860;2023-05-16T21:54:35;14.30;99.90
45868;DHT22;31582;45.490;7.860;2023-05-16T21:57:03;14.40;99.90
45868;DHT22;31582;45.490;7.860;2023-05-16T21:59:30;14.30;99.90
45868;DHT22;31582;45.490;7.860;2023-05-16T22:01:57;14.30;99.90
45868;DHT22;31582;45.490;7.860;2023-05-16T22:04:23;14.30;99.90
45868;DHT22;31582;45.490;7.860;2023-05-16T22:06:51;14.20;99.90
45868;DHT22;31582;45.490;7.860;2023-05-16T22:09:17;14.20;99.90
45868;DHT22;31582;45.490;7.860;2023-05-16T22:11:44;14.30;80.20
45868;DHT22;31582;45.490;7.860;2023-05-16T22:14:11;14.40;72.30
45868;DHT22;31582;45.490;7.860;2023-05-16T22:16:38;14.50;72.80
45868;DHT22;31582;45.490;7.860;2023-05-16T22:19:05;14.60;66.70
45868;DHT22;31582;45.490;7.860;2023-05-16T22:21:34;14.80;61.30
45868;DHT22;31582;45.490;7.860;2023-05-16T22:24:01;15.00;57.80
45868;DHT22;31582;45.490;7.860;2023-05-16T22:26:28;15.20;56.80
45868;DHT22;31582;45.490;7.860;2023-05-16T22:28:55;15.30;55.90
45868;DHT22;31582;45.490;7.860;2023-05-16T22:31:22;15.40;55.90
45868;DHT22;31582;45.490;7.860;2023-05-16T22:33:49;15.50;52.80
45868;DHT22;31582;45.490;7.860;2023-05-16T22:36:16;15.70;52.00
45868;DHT22;31582;45.490;7.860;2023-05-16T22:38:43;15.80;52.10
45868;DHT22;31582;45.490;7.860;2023-05-16T22:41:10;16.00;50.30
45868;DHT22;31582;45.490;7.860;2023-05-16T22:43:37;16.00;50.30
45868;DHT22;31582;45.490;7.860;2023-05-16T22:46:05;16.10;50.60
45868;DHT22;31582;45.490;7.860;2023-05-16T22:48:32;16.20;48.60
45868;DHT22;31582;45.490;7.860;2023-05-16T22:50:59;16.40;48.00
45868;DHT22;31582;45.490;7.860;2023-05-16T22:53:27;16.50;46.20
45868;DHT22;31582;45.490;7.860;2023-05-16T22:55:54;16.70;45.40
45868;DHT22;31582;45.490;7.860;2023-05-16T22:58:21;16.80;45.60
45868;DHT22;31582;45.490;7.860;2023-05-16T23:00:48;16.80;45.60
45868;DHT22;31582;45.490;7.860;2023-05-16T23:03:15;16.90;44.70
45868;DHT22;31582;45.490;7.860;2023-05-16T23:05:42;16.90;45.40
45868;DHT22;31582;45.490;7.860;2023-05-16T23:08:09;17.10;44.50
45868;DHT22;31582;45.490;7.860;2023-05-16T23:10:36;17.10;43.60
45868;DHT22;31582;45.490;7.860;2023-05-16T23:13:03;17.20;43.20
45868;DHT22;31582;45.490;7.860;2023-05-16T23:15:30;17.30;42.40
45868;DHT22;31582;45.490;7.860;2023-05-16T23:17:57;17.30;42.90
45868;DHT22;31582;45.490;7.860;2023-05-16T23:20:24;17.40;42.40
45868;DHT22;31582;45.490;7.860;2023-05-16T23:22:51;17.40;42.40
45868;DHT22;31582;45.490;7.860;2023-05-16T23:25:18;17.50;41.80
45868;DHT22;31582;45.490;7.860;2023-05-16T23:27:45;17.50;41.90
45868;DHT22;31582;45.490;7.860;2023-05-16T23:30:12;17.50;41.70
45868;DHT22;31582;45.490;7.860;2023-05-16T23:32:39;17.50;41.30
45868;DHT22;31582;45.490;7.860;2023-05-16T23:35:06;17.60;41.40
45868;DHT22;31582;45.490;7.860;2023-05-16T23:37:33;17.60;41.90
45868;DHT22;31582;45.490;7.860;2023-05-16T23:40:00;17.60;40.90
45868;DHT22;31582;45.490;7.860;2023-05-16T23:42:27;17.70;40.00
45868;DHT22;31582;45.490;7.860;2023-05-16T23:44:54;17.70;40.10
45868;DHT22;31582;45.490;7.860;2023-05-16T23:47:21;17.70;40.80
45868;DHT22;31582;45.490;7.860;2023-05-16T23:49:48;17.70;40.20
45868;DHT22;31582;45.490;7.860;2023-05-16T23:52:15;17.80;39.40
45868;DHT22;31582;45.490;7.860;2023-05-16T23:54:42;17.80;39.40
45868;DHT22;31582;45.490;7.860;2023-05-16T23:57:11;17.80;39.80
45868;DHT22;31582;45.490;7.860;2023-05-16T23:59:37;17.80;39.80
